Thunderstorms From: 20-05-2018 15:00 Until: 21-05-2018 15:00 warning for: Thunderstorms Level: Yellow info button

Although rather usual in this region, locally or potentially dangerous phenomena are expected. (such as local winds, summer thunderstorms, rising streams or high waves) Be aware and pay attention to the latest weather updates, especially if you carry out activities exposed to weather or close to a stream or shoreline. 


Meteo18 Weather Cam more information Meteo18 Weather Cam


warning for Thunderstorms more information blitzortung!


Rain radar more information rain snow radar


Visit our other weather sites:

Template documentation
and downloads

And another site



Weather Underground History page Text

Daily Summary for November 24, 2017 Units:  English    Metric   Both
« Previous Day
Next Day »
Daily Weekly Monthly Yearly Custom
  High: Low: Average:
Temperature: TemperatureC °F 8.6 °F 11 °F
Dew Point: DewpointC °F 6.4 °F 9.3 °F
Humidity: Humidity % 77 % 89 %
Wind Speed: WindSpeedKMH mph 0.0 mph 6.1 mph
Wind Gust: WindSpeedGustKMH mph - -
Wind:- - SW
Pressure: PressurehPa in 1012.4 in -
Precipitation: 6.1 in    
Historical Graphs
 
 
Tabular Data for November 24, 2017
Time Temperature Dew Point Pressure Wind Wind Speed Wind Gust Humidity Rainfall Rate (Hourly)
TemperatureC °F DewpointC °F PressurehPa in Calm     Humidity % HourlyPrecipMM in
00:02 10.9 °F 7.6 °F 1013.8 in SSW 1.6 mph 4.8 mph 80 % 0.0 in
00:07 10.9 °F 7.6 °F 1013.8 in SW 4.8 mph 4.8 mph 80 % 0.0 in
00:12 10.9 °F 7.6 °F 1014.1 in SSW 1.6 mph 4.8 mph 80 % 0.0 in
00:17 11.0 °F 7.7 °F 1013.8 in SSW 3.2 mph 4.8 mph 80 % 0.0 in
00:22 11.0 °F 7.7 °F 1013.8 in SSW 1.6 mph 4.8 mph 80 % 0.0 in
00:27 10.9 °F 7.6 °F 1013.8 in Calm   4.8 mph 80 % 0.0 in
00:47 10.4 °F 7.6 °F 1013.8 in SW 1.6 mph 3.2 mph 83 % 0.0 in
00:57 10.7 °F 8.1 °F 1013.4 in SSW 3.2 mph 4.8 mph 84 % 0.0 in
01:12 11.0 °F 8.4 °F 1013.1 in SW 6.4 mph 9.7 mph 84 % 0.0 in
01:17 11.1 °F 8.7 °F 1013.4 in SW 9.7 mph 9.7 mph 85 % 0.0 in
01:22 11.3 °F 8.7 °F 1013.4 in SSW 9.7 mph 11.3 mph 84 % 0.0 in
01:37 11.7 °F 8.9 °F 1013.1 in SW 8.0 mph 16.1 mph 83 % 0.0 in
01:42 11.7 °F 8.9 °F 1013.1 in SSW 6.4 mph 16.1 mph 83 % 0.0 in
01:47 11.7 °F 8.9 °F 1013.1 in SSW 4.8 mph 12.9 mph 83 % 0.0 in
01:57 11.7 °F 9.1 °F 1013.1 in SSW 4.8 mph 9.7 mph 84 % 0.0 in
02:02 11.7 °F 9.1 °F 1013.1 in SW 8.0 mph 9.7 mph 84 % 0.0 in
02:07 11.7 °F 8.9 °F 1013.1 in South 4.8 mph 12.9 mph 83 % 0.0 in
02:12 11.6 °F 8.8 °F 1013.1 in South 3.2 mph 12.9 mph 83 % 0.0 in
02:22 11.3 °F 8.7 °F 1013.1 in SSW 3.2 mph 12.9 mph 84 % 0.0 in
02:42 10.7 °F 8.5 °F 1013.1 in SSW 1.6 mph 8.0 mph 86 % 0.0 in
02:47 10.6 °F 8.4 °F 1013.1 in South 3.2 mph 8.0 mph 86 % 0.0 in
03:02 10.5 °F 8.3 °F 1013.1 in SSW 3.2 mph 8.0 mph 86 % 0.0 in
03:12 10.2 °F 8.0 °F 1013.1 in SSW 3.2 mph 6.4 mph 86 % 0.0 in
03:17 10.1 °F 8.0 °F 1012.8 in SSE 3.2 mph 6.4 mph 87 % 0.0 in
03:52 9.7 °F 7.6 °F 1012.4 in SSW 1.6 mph 6.4 mph 87 % 0.0 in
04:02 9.5 °F 7.4 °F 1012.4 in SW 3.2 mph 6.4 mph 87 % 0.0 in
04:17 9.3 °F 7.1 °F 1012.4 in South 3.2 mph 4.8 mph 86 % 0.0 in
04:22 9.3 °F 7.2 °F 1012.4 in Calm   6.4 mph 87 % 0.0 in
04:32 9.0 °F 7.0 °F 1012.8 in SSW 1.6 mph 6.4 mph 87 % 0.0 in
04:42 9.1 °F 7.2 °F 1012.4 in SSW 1.6 mph 4.8 mph 88 % 0.0 in
04:52 9.3 °F 7.2 °F 1012.4 in Calm   3.2 mph 87 % 0.0 in
04:57 9.4 °F 7.3 °F 1012.4 in SSW 1.6 mph 3.2 mph 87 % 0.0 in
05:02 9.5 °F 7.3 °F 1012.4 in SSW 3.2 mph 3.2 mph 86 % 0.0 in
05:07 9.6 °F 7.4 °F 1012.4 in SSW 1.6 mph 3.2 mph 86 % 0.0 in
05:12 9.7 °F 7.5 °F 1012.8 in SSW 1.6 mph 3.2 mph 86 % 0.0 in
05:17 9.7 °F 7.3 °F 1012.4 in Calm   3.2 mph 85 % 0.0 in
05:22 9.7 °F 7.5 °F 1012.4 in SSW 1.6 mph 3.2 mph 86 % 0.0 in
05:32 9.6 °F 7.4 °F 1012.4 in SSW 1.6 mph 3.2 mph 86 % 0.0 in
05:42 9.3 °F 7.1 °F 1012.4 in Calm   3.2 mph 86 % 0.0 in
05:47 9.2 °F 7.1 °F 1012.4 in SSW 1.6 mph 3.2 mph 87 % 0.0 in
05:57 9.1 °F 6.9 °F 1012.4 in South 1.6 mph 4.8 mph 86 % 0.0 in
06:02 8.9 °F 6.7 °F 1012.4 in SSW 1.6 mph 4.8 mph 86 % 0.0 in
06:12 8.8 °F 6.6 °F 1012.8 in SSW 1.6 mph 6.4 mph 86 % 0.0 in
06:17 8.6 °F 6.4 °F 1012.8 in SSW 1.6 mph 4.8 mph 86 % 0.0 in
06:22 8.9 °F 6.9 °F 1012.4 in SW 1.6 mph 4.8 mph 87 % 0.0 in
06:27 9.1 °F 6.9 °F 1012.8 in South 1.6 mph 6.4 mph 86 % 0.0 in
06:32 9.3 °F 7.1 °F 1012.8 in South 3.2 mph 6.4 mph 86 % 0.0 in
06:42 9.3 °F 6.7 °F 1012.8 in Calm   6.4 mph 84 % 0.0 in
06:47 9.3 °F 6.9 °F 1012.8 in Calm   6.4 mph 85 % 0.0 in
06:57 9.4 °F 7.2 °F 1012.4 in SSE 1.6 mph 6.4 mph 86 % 0.0 in
07:02 9.6 °F 7.2 °F 1012.8 in Calm   6.4 mph 85 % 0.0 in
07:17 9.6 °F 7.2 °F 1012.8 in Calm   3.2 mph 85 % 0.0 in
07:32 10.1 °F 7.5 °F 1012.8 in Calm   3.2 mph 84 % 0.0 in
07:42 10.3 °F 7.5 °F 1012.8 in South 1.6 mph 3.2 mph 83 % 0.0 in
07:47 10.3 °F 7.5 °F 1012.8 in South 1.6 mph 3.2 mph 83 % 0.0 in
07:52 10.2 °F 7.4 °F 1012.8 in SSW 3.2 mph 3.2 mph 83 % 0.0 in
08:02 11.0 °F 7.9 °F 1013.1 in SW 6.4 mph 6.4 mph 81 % 0.0 in
08:17 11.8 °F 8.1 °F 1013.4 in WSW 8.0 mph 19.3 mph 78 % 0.0 in
08:22 11.9 °F 8.2 °F 1013.4 in SW 11.3 mph 19.3 mph 78 % 0.0 in
08:27 12.0 °F 8.1 °F 1013.1 in SW 9.7 mph 19.3 mph 77 % 0.0 in
08:32 12.1 °F 8.2 °F 1013.4 in SW 6.4 mph 19.3 mph 77 % 0.0 in
08:57 12.0 °F 8.7 °F 1013.8 in SSW 11.3 mph 17.7 mph 80 % 0.0 in
09:07 12.2 °F 9.2 °F 1013.8 in WSW 11.3 mph 24.1 mph 82 % 0.0 in
09:12 12.3 °F 9.3 °F 1013.8 in SW 6.4 mph 24.1 mph 82 % 0.0 in
09:22 12.3 °F 9.5 °F 1013.8 in West 4.8 mph 24.1 mph 83 % 0.0 in
09:42 12.4 °F 9.9 °F 1013.8 in WSW 9.7 mph 19.3 mph 85 % 0.0 in
09:52 12.4 °F 9.9 °F 1014.1 in SW 19.3 mph 20.9 mph 85 % 0.0 in
10:02 12.4 °F 10.1 °F 1014.4 in WSW 9.7 mph 20.9 mph 86 % 0.0 in
10:07 12.4 °F 10.1 °F 1014.4 in SSW 9.7 mph 20.9 mph 86 % 0.0 in
10:17 12.4 °F 10.3 °F 1014.4 in WSW 4.8 mph 20.9 mph 87 % 0.0 in
10:22 12.4 °F 10.3 °F 1014.4 in WSW 8.0 mph 20.9 mph 87 % 0.0 in
10:32 12.3 °F 10.2 °F 1014.4 in SSW 9.7 mph 16.1 mph 87 % 0.0 in
10:42 12.3 °F 10.4 °F 1014.4 in SSW 8.0 mph 17.7 mph 88 % 0.0 in
10:52 12.3 °F 10.5 °F 1014.8 in SSW 8.0 mph 16.1 mph 89 % 0.0 in
11:02 12.4 °F 10.6 °F 1014.4 in SSW 8.0 mph 17.7 mph 89 % 0.0 in
11:07 12.5 °F 10.7 °F 1014.8 in SW 12.9 mph 17.7 mph 89 % 0.0 in
11:12 12.6 °F 10.7 °F 1014.8 in WSW 9.7 mph 17.7 mph 88 % 0.0 in
11:17 12.6 °F 10.7 °F 1014.8 in SSW 11.3 mph 17.7 mph 88 % 0.0 in
11:22 12.7 °F 10.8 °F 1014.8 in SW 20.9 mph 20.9 mph 88 % 0.0 in
11:32 12.7 °F 10.8 °F 1014.8 in WSW 9.7 mph 25.7 mph 88 % 0.0 in
11:42 12.7 °F 10.8 °F 1015.1 in SW 1.6 mph 20.9 mph 88 % 0.0 in
11:47 12.7 °F 10.8 °F 1014.8 in SW 8.0 mph 20.9 mph 88 % 0.0 in
11:52 12.8 °F 10.9 °F 1014.8 in SW 8.0 mph 20.9 mph 88 % 0.0 in
12:02 12.8 °F 10.9 °F 1014.8 in SW 11.3 mph 20.9 mph 88 % 0.0 in
12:12 12.7 °F 10.8 °F 1014.8 in SW 9.7 mph 19.3 mph 88 % 0.0 in
12:17 12.7 °F 10.8 °F 1015.1 in SW 17.7 mph 17.7 mph 88 % 0.0 in
12:22 12.7 °F 10.8 °F 1014.8 in SW 8.0 mph 17.7 mph 88 % 0.0 in
12:32 12.7 °F 10.8 °F 1015.1 in SW 9.7 mph 19.3 mph 88 % 0.0 in
12:42 12.7 °F 10.8 °F 1015.1 in WSW 11.3 mph 20.9 mph 88 % 0.0 in
12:47 12.7 °F 10.9 °F 1015.1 in SSW 9.7 mph 22.5 mph 89 % 0.0 in
12:52 12.7 °F 10.9 °F 1014.8 in SSW 9.7 mph 22.5 mph 89 % 0.0 in
12:57 12.7 °F 10.9 °F 1014.8 in SSW 4.8 mph 22.5 mph 89 % 0.0 in
13:02 12.7 °F 10.9 °F 1014.8 in SSW 9.7 mph 22.5 mph 89 % 0.0 in
13:12 12.6 °F 10.8 °F 1014.8 in SW 9.7 mph 19.3 mph 89 % 0.0 in
13:17 12.6 °F 11.0 °F 1014.8 in SW 4.8 mph 19.3 mph 90 % 0.0 in
13:22 12.6 °F 11.0 °F 1015.1 in SW 9.7 mph 19.3 mph 90 % 0.0 in
13:27 12.6 °F 11.0 °F 1014.8 in SSW 9.7 mph 16.1 mph 90 % 0.0 in
13:32 12.6 °F 11.0 °F 1014.8 in SW 11.3 mph 16.1 mph 90 % 0.0 in
13:42 12.6 °F 11.0 °F 1014.8 in SW 9.7 mph 22.5 mph 90 % 0.0 in
13:47 12.7 °F 11.1 °F 1014.8 in SW 14.5 mph 20.9 mph 90 % 0.0 in
13:52 12.7 °F 10.9 °F 1014.8 in SW 12.9 mph 20.9 mph 89 % 0.0 in
14:02 12.6 °F 10.8 °F 1014.8 in WSW 24.1 mph 24.1 mph 89 % 0.0 in
14:12 12.6 °F 11.0 °F 1014.8 in SW 17.7 mph 29.0 mph 90 % 0.0 in
14:17 12.4 °F 10.8 °F 1014.8 in SW 20.9 mph 29.0 mph 90 % 0.0 in
14:27 12.3 °F 10.7 °F 1014.8 in SW 19.3 mph 25.7 mph 90 % 0.0 in
14:32 12.3 °F 10.7 °F 1014.8 in SW 16.1 mph 25.7 mph 90 % 0.0 in
14:42 12.2 °F 10.8 °F 1014.4 in WSW 12.9 mph 25.7 mph 91 % 0.0 in
14:47 12.2 °F 10.8 °F 1014.8 in WSW 12.9 mph 25.7 mph 91 % 0.0 in
14:52 12.2 °F 10.6 °F 1014.8 in SW 12.9 mph 25.7 mph 90 % 0.0 in
15:02 12.2 °F 10.8 °F 1014.8 in SW 8.0 mph 24.1 mph 91 % 0.0 in
15:12 12.1 °F 10.7 °F 1014.8 in SSW 11.3 mph 24.1 mph 91 % 0.0 in
15:17 12.1 °F 10.7 °F 1014.8 in WSW 14.5 mph 24.1 mph 91 % 0.0 in
15:22 12.1 °F 10.7 °F 1014.8 in SW 14.5 mph 24.1 mph 91 % 0.0 in
15:32 12.1 °F 10.7 °F 1014.8 in South 11.3 mph 24.1 mph 91 % 0.0 in
15:42 12.0 °F 10.6 °F 1014.8 in SSW 9.7 mph 22.5 mph 91 % 0.0 in
15:47 11.9 °F 10.6 °F 1014.8 in SSW 11.3 mph 22.5 mph 92 % 0.0 in
15:52 11.9 °F 10.6 °F 1014.8 in SW 9.7 mph 22.5 mph 92 % 0.0 in
16:02 11.8 °F 10.5 °F 1014.8 in SW 16.1 mph 19.3 mph 92 % 0.0 in
16:12 11.8 °F 10.7 °F 1014.8 in SW 9.7 mph 19.3 mph 93 % 0.0 in
16:17 11.7 °F 10.6 °F 1014.8 in SW 16.1 mph 19.3 mph 93 % 0.0 in
16:22 11.7 °F 10.6 °F 1014.8 in SSW 6.4 mph 19.3 mph 93 % 0.0 in
16:32 11.6 °F 10.5 °F 1014.4 in SSW 12.9 mph 16.1 mph 93 % 0.0 in
16:42 11.4 °F 10.5 °F 1014.4 in SW 11.3 mph 14.5 mph 94 % 0.0 in
16:52 11.4 °F 10.5 °F 1014.8 in SSW 14.5 mph 19.3 mph 94 % 0.0 in
16:57 11.3 °F 10.4 °F 1014.4 in SW 11.3 mph 19.3 mph 94 % 0.0 in
17:02 11.3 °F 10.4 °F 1014.4 in South 8.0 mph 19.3 mph 94 % 0.0 in
17:12 11.2 °F 10.3 °F 1014.4 in SW 6.4 mph 16.1 mph 94 % 0.0 in
17:17 11.2 °F 10.3 °F 1014.8 in SSW 6.4 mph 11.3 mph 94 % 0.0 in
17:22 11.2 °F 10.3 °F 1014.8 in SW 6.4 mph 11.3 mph 94 % 0.0 in
17:27 11.1 °F 10.2 °F 1014.8 in SSW 4.8 mph 14.5 mph 94 % 0.0 in
17:32 11.1 °F 10.3 °F 1014.8 in SW 6.4 mph 14.5 mph 95 % 0.0 in
17:37 11.1 °F 10.3 °F 1014.8 in SSW 4.8 mph 14.5 mph 95 % 0.0 in
17:42 11.0 °F 10.2 °F 1015.1 in SSW 6.4 mph 14.5 mph 95 % 0.0 in
17:47 10.9 °F 10.1 °F 1014.8 in SSW 4.8 mph 9.7 mph 95 % 0.0 in
17:57 10.9 °F 10.1 °F 1015.1 in SW 3.2 mph 9.7 mph 95 % 0.0 in
18:02 10.9 °F 10.1 °F 1015.1 in SSW 6.4 mph 9.7 mph 95 % 0.0 in
18:12 10.9 °F 10.1 °F 1015.1 in SW 6.4 mph 11.3 mph 95 % 0.0 in
18:17 10.9 °F 10.1 °F 1015.1 in SSE 3.2 mph 11.3 mph 95 % 0.0 in
18:22 10.9 °F 10.1 °F 1015.1 in SW 6.4 mph 11.3 mph 95 % 0.0 in
18:27 10.9 °F 10.1 °F 1015.1 in SSW 4.8 mph 11.3 mph 95 % 0.0 in
18:32 10.9 °F 10.1 °F 1015.1 in SW 4.8 mph 9.7 mph 95 % 0.0 in
18:42 10.9 °F 10.1 °F 1014.8 in SSW 6.4 mph 9.7 mph 95 % 0.0 in
18:52 10.9 °F 10.1 °F 1015.1 in SW 6.4 mph 9.7 mph 95 % 0.0 in
18:57 10.9 °F 10.1 °F 1015.1 in SW 4.8 mph 11.3 mph 95 % 0.0 in
19:02 10.8 °F 10.0 °F 1015.1 in SSW 1.6 mph 11.3 mph 95 % 0.0 in
19:12 10.8 °F 10.0 °F 1014.8 in SSW 6.4 mph 8.0 mph 95 % 0.0 in
19:17 10.8 °F 10.0 °F 1015.1 in South 3.2 mph 9.7 mph 95 % 0.0 in
19:22 10.9 °F 10.1 °F 1015.1 in SW 11.3 mph 11.3 mph 95 % 0.0 in
19:32 10.8 °F 10.0 °F 1014.8 in SSW 3.2 mph 11.3 mph 95 % 0.0 in
19:42 10.7 °F 9.9 °F 1014.8 in SSW 4.8 mph 11.3 mph 95 % 0.0 in
19:52 10.7 °F 9.9 °F 1015.1 in SW 4.8 mph 8.0 mph 95 % 0.0 in
20:02 10.7 °F 10.1 °F 1014.8 in SSW 4.8 mph 8.0 mph 96 % 0.3 in
20:12 10.7 °F 10.1 °F 1014.8 in SW 6.4 mph 6.4 mph 96 % 1.3 in
20:22 10.8 °F 10.2 °F 1015.1 in WSW 9.7 mph 14.5 mph 96 % 2.0 in
20:32 10.9 °F 10.3 °F 1014.8 in SW 1.6 mph 12.9 mph 96 % 2.3 in
20:37 10.9 °F 10.3 °F 1014.8 in WSW 6.4 mph 12.9 mph 96 % 2.3 in
20:42 10.9 °F 10.3 °F 1014.8 in WSW 6.4 mph 12.9 mph 96 % 2.5 in
20:47 10.9 °F 10.3 °F 1014.8 in SW 3.2 mph 12.9 mph 96 % 2.5 in
20:52 10.8 °F 10.2 °F 1014.8 in WSW 4.8 mph 12.9 mph 96 % 2.8 in
20:57 10.8 °F 10.2 °F 1014.8 in WSW 3.2 mph 8.0 mph 96 % 2.8 in
21:02 10.8 °F 10.2 °F 1014.8 in SW 1.6 mph 8.0 mph 96 % 2.8 in
21:12 10.8 °F 10.2 °F 1014.8 in WSW 1.6 mph 9.7 mph 96 % 1.5 in
21:17 10.7 °F 10.1 °F 1014.8 in Calm   9.7 mph 96 % 1.3 in
21:22 10.7 °F 10.1 °F 1014.8 in WSW 1.6 mph 9.7 mph 96 % 0.8 in
21:32 10.7 °F 10.1 °F 1014.8 in WSW 3.2 mph 4.8 mph 96 % 0.5 in
21:37 10.7 °F 10.1 °F 1014.4 in Calm   4.8 mph 96 % 0.8 in
21:47 10.6 °F 10.0 °F 1014.4 in West 1.6 mph 4.8 mph 96 % 0.5 in
21:52 10.6 °F 10.0 °F 1014.4 in WNW 3.2 mph 4.8 mph 96 % 0.5 in
22:02 10.6 °F 10.0 °F 1014.4 in Calm   4.8 mph 96 % 0.5 in
22:07 10.6 °F 10.0 °F 1014.4 in Calm   4.8 mph 96 % 0.5 in
22:12 10.5 °F 9.9 °F 1014.4 in Calm   3.2 mph 96 % 0.5 in
22:17 10.4 °F 9.8 °F 1014.4 in Calm   3.2 mph 96 % 0.5 in
22:22 10.4 °F 9.8 °F 1014.4 in Calm   3.2 mph 96 % 0.5 in
22:32 10.4 °F 9.8 °F 1014.4 in Calm   1.6 mph 96 % 0.8 in
22:42 10.3 °F 9.7 °F 1014.4 in Calm   4.8 mph 96 % 0.8 in
22:47 10.2 °F 9.6 °F 1014.4 in WSW 1.6 mph 4.8 mph 96 % 1.0 in
22:52 10.0 °F 9.2 °F 1014.4 in West 4.8 mph 4.8 mph 95 % 1.0 in
23:02 9.8 °F 9.0 °F 1014.4 in WNW 3.2 mph 6.4 mph 95 % 1.0 in
23:07 9.7 °F 8.8 °F 1014.4 in Calm   6.4 mph 94 % 1.3 in
23:12 9.6 °F 8.4 °F 1014.4 in West 4.8 mph 6.4 mph 92 % 1.3 in
23:22 9.4 °F 8.0 °F 1014.4 in NNW 4.8 mph 11.3 mph 91 % 1.3 in
23:27 9.3 °F 7.9 °F 1014.1 in NW 3.2 mph 11.3 mph 91 % 1.3 in
23:37 9.1 °F 7.7 °F 1014.1 in Calm   8.0 mph 91 % 1.5 in
23:42 9.1 °F 7.9 °F 1013.8 in Calm   8.0 mph 92 % 1.8 in
23:47 9.0 °F 7.8 °F 1013.8 in Calm   3.2 mph 92 % 1.8 in
23:57 8.8 °F 7.7 °F 1013.8 in Calm   1.6 mph 93 % 1.5 in
Meteo18
Compliments of Weather Underground - 4 mb

Script developed by  Jim McMurry - jmcmurry@mwt.net Adapted for the template by  Wim van der Kuil - Leuven-Template.eu

You find our weather info also at:

European Weather Network

Weather Underground

Equipment we use:

Weather-station
Davis Vue

Weather-program
Meteobridge

Weather-server
Raspberry PI 2 B+

Provider
1 and 1

Davis Vue

Meteobridge

Raspberry PI 2 B+

1 and 1